Time;durP1;ratioP1;P1;durP2;ratioP2;P2;SDS_P1;SDS_P2;PMS_P1;PMS_P2;Temp;Humidity;BMP_temperature;BMP_pressure;BME280_temperature;BME280_humidity;BME280_pressure;Samples;Min_cycle;Max_cycle;Signal;HPM_P1;HPM_P2
2022/09/14 00:02:03;;;;;;;10.27;4.17;;;21.40;83.70;;;;;;5109672;28;20198;-94
2022/09/14 00:04:30;;;;;;;6.87;4.03;;;21.40;83.50;;;;;;5131576;28;20231;-93
2022/09/14 00:06:58;;;;;;;6.13;3.23;;;21.30;83.50;;;;;;5122007;28;20232;-93
2022/09/14 00:09:31;;;;;;;12.00;4.03;;;21.30;83.80;;;;;;5115308;28;20689;-94
2022/09/14 00:11:59;;;;;;;11.60;4.97;;;21.30;84.20;;;;;;5114018;28;20206;-95
2022/09/14 00:14:26;;;;;;;7.90;3.80;;;21.30;83.90;;;;;;5111953;28;20238;-93
2022/09/14 00:16:55;;;;;;;11.07;5.07;;;21.30;83.90;;;;;;5112407;28;20264;-95
2022/09/14 00:19:24;;;;;;;10.43;4.90;;;21.30;84.80;;;;;;5114629;28;20690;-96
2022/09/14 00:21:53;;;;;;;8.13;3.93;;;21.30;84.70;;;;;;5116374;28;20723;-95
2022/09/14 00:24:25;;;;;;;9.73;4.53;;;21.20;84.70;;;;;;5114411;28;20201;-96
2022/09/14 00:26:54;;;;;;;10.17;4.13;;;21.20;85.00;;;;;;5114240;28;20210;-95
2022/09/14 00:29:23;;;;;;;8.03;3.93;;;21.30;84.90;;;;;;5114944;28;20206;-95
2022/09/14 00:31:51;;;;;;;10.00;4.33;;;21.20;85.30;;;;;;5113316;28;20202;-94
2022/09/14 00:34:20;;;;;;;8.07;3.90;;;21.20;85.00;;;;;;5113968;28;20226;-94
2022/09/14 00:36:51;;;;;;;11.07;5.10;;;21.20;85.40;;;;;;5112373;27;20203;-95
2022/09/14 00:39:22;;;;;;;9.47;5.03;;;21.20;85.60;;;;;;5105792;28;20281;-96
2022/09/14 00:41:50;;;;;;;6.10;3.63;;;21.20;85.60;;;;;;5091259;28;20237;-93
2022/09/14 00:44:55;;;;;;;9.50;4.10;;;21.20;85.60;;;;;;5112084;28;20287;-94
2022/09/14 00:47:23;;;;;;;10.97;4.80;;;21.10;86.70;;;;;;5128870;28;20265;-94
2022/09/14 00:49:52;;;;;;;9.17;4.40;;;21.10;85.70;;;;;;5131948;27;20270;-94
2022/09/14 00:52:24;;;;;;;11.27;5.43;;;21.10;86.40;;;;;;5131401;27;20311;-95
2022/09/14 00:54:55;;;;;;;6.87;3.93;;;21.10;86.90;;;;;;5132205;27;20202;-93
2022/09/14 00:57:24;;;;;;;13.63;6.27;;;21.10;86.90;;;;;;5116539;27;20202;-95
2022/09/14 00:59:53;;;;;;;9.37;4.83;;;21.10;86.40;;;;;;5110655;28;20206;-94
2022/09/14 01:02:23;;;;;;;8.30;4.60;;;21.10;86.80;;;;;;5111561;28;20204;-94
2022/09/14 01:04:53;;;;;;;7.17;4.40;;;21.10;86.90;;;;;;5113631;28;20199;-93
2022/09/14 01:07:32;;;;;;;15.17;6.77;;;21.10;87.10;;;;;;5112810;28;20279;-94
2022/09/14 01:10:07;;;;;;;15.17;6.97;;;21.20;87.80;;;;;;5099981;28;20211;-94
2022/09/14 01:12:44;;;;;;;11.10;5.47;;;21.10;88.00;;;;;;5092539;28;20195;-94
2022/09/14 01:15:17;;;;;;;11.40;5.50;;;21.10;88.10;;;;;;5086119;28;20216;-94
2022/09/14 01:17:50;;;;;;;12.00;5.63;;;21.10;88.10;;;;;;5084022;28;20230;-95
2022/09/14 01:20:30;;;;;;;9.00;5.50;;;21.10;88.00;;;;;;5093998;28;20206;-95
2022/09/14 01:23:08;;;;;;;11.73;5.67;;;21.10;88.70;;;;;;5095207;28;20207;-95
2022/09/14 01:25:59;;;;;;;9.50;5.17;;;21.10;88.30;;;;;;5101184;28;20213;-93
2022/09/14 01:28:34;;;;;;;12.80;5.17;;;21.10;88.60;;;;;;5105809;28;20203;-94
2022/09/14 01:31:04;;;;;;;15.37;7.50;;;21.10;88.90;;;;;;5098064;28;20677;-96
2022/09/14 01:33:39;;;;;;;10.13;5.43;;;21.10;88.20;;;;;;5095493;28;20748;-96
2022/09/14 01:36:09;;;;;;;19.27;7.00;;;21.10;89.00;;;;;;5097735;28;20251;-94
2022/09/14 01:38:44;;;;;;;13.57;6.00;;;21.10;88.50;;;;;;5076329;28;20233;-94
2022/09/14 01:41:32;;;;;;;8.87;5.23;;;21.10;89.00;;;;;;5096377;28;20197;-93
2022/09/14 01:44:08;;;;;;;9.97;5.23;;;21.10;89.20;;;;;;5095467;28;20258;-94
2022/09/14 01:46:40;;;;;;;7.20;3.60;;;21.10;89.00;;;;;;5088771;28;20206;-93
2022/09/14 01:49:14;;;;;;;11.80;4.27;;;21.10;88.70;;;;;;5099418;28;20228;-93
2022/09/14 01:51:48;;;;;;;10.27;4.43;;;21.10;88.60;;;;;;5109226;28;20229;-93
2022/09/14 01:54:22;;;;;;;12.07;4.90;;;21.10;88.60;;;;;;5105276;28;20222;-92
2022/09/14 01:56:52;;;;;;;12.30;5.10;;;21.10;88.60;;;;;;5098917;28;20206;-94
2022/09/14 01:59:24;;;;;;;20.23;7.10;;;21.10;88.50;;;;;;5092224;28;20226;-94
2022/09/14 02:02:01;;;;;;;13.23;5.43;;;21.00;88.40;;;;;;5093269;28;20213;-92
2022/09/14 02:04:36;;;;;;;13.70;5.50;;;21.00;88.20;;;;;;5093633;28;20464;-92
2022/09/14 02:07:05;;;;;;;10.23;4.37;;;21.00;88.20;;;;;;5090505;28;20194;-94
2022/09/14 02:09:35;;;;;;;10.00;4.10;;;21.00;87.90;;;;;;5097158;28;20198;-94
2022/09/14 02:12:02;;;;;;;8.37;3.73;;;21.00;87.90;;;;;;5104897;28;21111;-95
2022/09/14 02:14:35;;;;;;;9.23;3.80;;;21.00;87.70;;;;;;5086062;28;20204;-94
2022/09/14 02:17:04;;;;;;;12.50;4.10;;;21.00;88.30;;;;;;5087758;28;20642;-93
2022/09/14 02:19:37;;;;;;;9.00;4.00;;;20.90;88.00;;;;;;5095338;28;20575;-96
2022/09/14 02:22:05;;;;;;;9.43;4.50;;;20.90;88.60;;;;;;5084131;28;20206;-92
2022/09/14 02:24:33;;;;;;;11.00;4.30;;;20.90;88.10;;;;;;5090665;28;20202;-95
2022/09/14 02:27:01;;;;;;;9.53;4.27;;;20.90;87.90;;;;;;5077453;28;20285;-93
2022/09/14 02:29:30;;;;;;;8.40;4.07;;;20.90;88.10;;;;;;5081005;28;20195;-94
2022/09/14 02:32:13;;;;;;;8.87;3.77;;;20.90;88.10;;;;;;5095475;28;20214;-95
2022/09/14 02:34:52;;;;;;;7.13;3.83;;;20.90;88.80;;;;;;5092834;28;20301;-93
2022/09/14 02:37:24;;;;;;;9.20;4.50;;;20.80;88.30;;;;;;5095533;28;20210;-94
2022/09/14 02:40:01;;;;;;;9.70;4.33;;;20.80;88.20;;;;;;5096641;28;20256;-94
2022/09/14 02:42:39;;;;;;;9.67;4.83;;;20.80;88.30;;;;;;5095339;28;20601;-95
2022/09/14 02:45:16;;;;;;;9.57;4.23;;;20.80;88.70;;;;;;5098371;28;20227;-94
2022/09/14 02:47:55;;;;;;;10.90;4.73;;;20.80;88.70;;;;;;5078041;28;20524;-94
2022/09/14 02:50:29;;;;;;;6.57;3.27;;;20.70;88.30;;;;;;5108147;28;20230;-94
2022/09/14 02:53:04;;;;;;;6.57;3.77;;;20.70;88.60;;;;;;5104318;28;20894;-94
2022/09/14 02:55:37;;;;;;;7.53;3.93;;;20.70;88.30;;;;;;5096444;28;20226;-94
2022/09/14 02:58:06;;;;;;;8.70;4.07;;;20.70;88.60;;;;;;5095059;28;20264;-94
2022/09/14 03:00:37;;;;;;;11.20;4.53;;;20.70;88.40;;;;;;5094823;28;20210;-93
2022/09/14 03:03:07;;;;;;;8.60;4.00;;;20.70;88.60;;;;;;5095031;28;20203;-93
2022/09/14 03:05:36;;;;;;;7.60;3.60;;;20.70;88.60;;;;;;5095189;28;20195;-94
2022/09/14 03:08:04;;;;;;;13.17;5.53;;;20.70;87.80;;;;;;5114490;28;20207;-94
2022/09/14 03:10:33;;;;;;;6.90;3.67;;;20.60;88.20;;;;;;5125905;28;20630;-93
2022/09/14 03:13:01;;;;;;;5.80;3.03;;;20.60;88.50;;;;;;5108889;28;20216;-95
2022/09/14 03:15:32;;;;;;;11.30;4.43;;;20.60;88.40;;;;;;5100984;28;20204;-93
2022/09/14 03:18:00;;;;;;;8.97;3.33;;;20.60;88.50;;;;;;5092608;28;20208;-92
2022/09/14 03:20:32;;;;;;;11.13;5.07;;;20.60;88.50;;;;;;5128022;28;20213;-94
2022/09/14 03:23:00;;;;;;;11.70;4.80;;;20.60;88.80;;;;;;5136164;28;20197;-92
2022/09/14 03:25:28;;;;;;;9.60;3.67;;;20.60;88.50;;;;;;5109081;28;20227;-95
2022/09/14 03:27:57;;;;;;;10.97;4.30;;;20.50;88.50;;;;;;5100120;28;20202;-94
2022/09/14 03:30:30;;;;;;;13.63;4.80;;;20.50;88.60;;;;;;5099566;28;20230;-94
2022/09/14 03:32:58;;;;;;;11.60;5.47;;;20.50;89.10;;;;;;5111782;28;20240;-94
2022/09/14 03:35:27;;;;;;;12.80;5.33;;;20.50;88.90;;;;;;5107644;28;20255;-93
2022/09/14 03:38:03;;;;;;;11.70;5.07;;;20.50;89.20;;;;;;5083731;28;20255;-92
2022/09/14 03:40:34;;;;;;;12.63;5.40;;;20.40;89.60;;;;;;5104606;28;20205;-93
2022/09/14 03:43:08;;;;;;;8.93;4.47;;;20.50;90.00;;;;;;5088494;28;20636;-93
2022/09/14 03:45:37;;;;;;;13.60;5.27;;;20.50;89.70;;;;;;5094088;28;20281;-92
2022/09/14 03:48:10;;;;;;;8.47;4.87;;;20.40;89.80;;;;;;5076294;28;20622;-94
2022/09/14 03:50:40;;;;;;;11.67;5.80;;;20.50;89.80;;;;;;5073722;28;20221;-94
2022/09/14 03:53:10;;;;;;;10.30;5.27;;;20.40;90.00;;;;;;5092391;28;20202;-92
2022/09/14 03:55:40;;;;;;;11.10;5.57;;;20.50;90.00;;;;;;5092269;28;20231;-93
2022/09/14 03:58:10;;;;;;;12.67;5.83;;;20.40;90.10;;;;;;5091168;28;20210;-92
2022/09/14 04:00:43;;;;;;;14.70;6.80;;;20.40;90.10;;;;;;5091222;28;20232;-94
2022/09/14 04:03:12;;;;;;;10.93;6.23;;;20.40;90.10;;;;;;5084704;28;20201;-93
2022/09/14 04:08:24;;;;;;;11.13;5.97;;;20.40;90.00;;;;;;5076310;28;20219;-93
2022/09/14 04:10:53;;;;;;;12.97;5.93;;;20.40;90.20;;;;;;5094518;28;20231;-93
2022/09/14 04:13:21;;;;;;;14.33;6.50;;;20.30;90.20;;;;;;5092399;28;20233;-92
2022/09/14 04:16:00;;;;;;;11.10;6.23;;;20.40;90.10;;;;;;5094266;28;20213;-92
2022/09/14 04:18:28;;;;;;;18.47;8.13;;;20.30;90.40;;;;;;5089063;28;20264;-93
2022/09/14 04:20:59;;;;;;;16.03;7.73;;;20.30;90.00;;;;;;5091482;28;20210;-95
2022/09/14 04:23:28;;;;;;;15.37;6.87;;;20.30;90.10;;;;;;5107802;28;20708;-93
2022/09/14 04:25:55;;;;;;;14.93;7.80;;;20.30;90.10;;;;;;5088731;28;20202;-91
2022/09/14 04:28:27;;;;;;;14.23;7.03;;;20.30;89.90;;;;;;5091430;28;20211;-92
2022/09/14 04:31:01;;;;;;;16.00;8.07;;;20.30;90.10;;;;;;5089090;28;20628;-93
2022/09/14 04:33:41;;;;;;;14.23;6.80;;;20.30;90.30;;;;;;5087101;28;20203;-93
2022/09/14 04:36:11;;;;;;;14.77;7.60;;;20.20;90.10;;;;;;5089928;28;20202;-93
2022/09/14 04:38:41;;;;;;;13.20;7.83;;;20.20;90.10;;;;;;5092636;28;20255;-94
2022/09/14 04:41:10;;;;;;;13.40;6.80;;;20.20;90.30;;;;;;5083105;28;20225;-95
2022/09/14 04:43:41;;;;;;;12.70;6.67;;;20.20;90.20;;;;;;5093528;28;20222;-94
2022/09/14 04:46:11;;;;;;;10.83;6.60;;;20.20;90.20;;;;;;5102882;28;20201;-94
2022/09/14 04:48:42;;;;;;;13.57;7.17;;;20.20;90.30;;;;;;5110445;28;20256;-93
2022/09/14 04:51:15;;;;;;;9.03;5.73;;;20.20;90.20;;;;;;5102937;28;20258;-96
2022/09/14 04:53:49;;;;;;;8.70;5.57;;;20.20;90.50;;;;;;5121638;28;20268;-95
2022/09/14 04:56:18;;;;;;;9.20;6.47;;;20.10;90.60;;;;;;5109041;28;20198;-94
2022/09/14 04:58:48;;;;;;;16.43;7.90;;;20.10;90.40;;;;;;5120412;28;20209;-94
2022/09/14 05:01:19;;;;;;;11.03;6.47;;;20.10;90.50;;;;;;5113231;28;20735;-92
2022/09/14 05:03:48;;;;;;;9.67;6.67;;;20.10;90.70;;;;;;5092662;28;20635;-91
2022/09/14 05:06:19;;;;;;;15.23;8.33;;;20.10;90.50;;;;;;5095954;28;20229;-93
2022/09/14 05:08:50;;;;;;;16.87;8.80;;;20.10;90.60;;;;;;5094698;28;20834;-91
2022/09/14 05:11:20;;;;;;;14.47;8.10;;;20.10;90.60;;;;;;5074897;28;20292;-94
2022/09/14 05:13:48;;;;;;;27.93;11.83;;;20.10;90.60;;;;;;5078842;28;20196;-91
2022/09/14 05:16:18;;;;;;;13.00;7.67;;;20.10;90.50;;;;;;5094275;28;20237;-95
2022/09/14 05:18:46;;;;;;;9.13;7.00;;;20.10;90.60;;;;;;5099914;28;20210;-95
2022/09/14 05:21:18;;;;;;;13.87;7.97;;;20.00;90.50;;;;;;5095781;28;20194;-94
2022/09/14 05:23:46;;;;;;;15.63;8.30;;;20.00;90.60;;;;;;5096396;28;20315;-92
2022/09/14 05:26:22;;;;;;;15.27;8.50;;;20.00;90.60;;;;;;5096329;28;20210;-95
2022/09/14 05:28:52;;;;;;;13.07;8.60;;;20.00;90.80;;;;;;5099754;28;20201;-93
2022/09/14 05:31:23;;;;;;;18.60;9.20;;;20.00;90.80;;;;;;5093289;28;20272;-95
2022/09/14 05:33:54;;;;;;;12.70;7.87;;;20.00;91.00;;;;;;5100054;28;20221;-92
2022/09/14 05:36:23;;;;;;;16.97;9.27;;;20.00;90.80;;;;;;5113008;28;20224;-94
2022/09/14 05:41:33;;;;;;;16.57;8.13;;;19.90;90.70;;;;;;5100959;28;20241;-93
2022/09/14 05:44:13;;;;;;;10.53;6.93;;;19.90;90.90;;;;;;5105900;28;20235;-94
2022/09/14 05:49:45;;;;;;;14.63;8.63;;;19.90;90.80;;;;;;5087843;28;20287;-94
2022/09/14 05:52:12;;;;;;;18.23;8.67;;;19.90;90.70;;;;;;5083881;22;20378;-95
2022/09/14 05:54:39;;;;;;;12.53;6.53;;;19.90;90.70;;;;;;5072464;28;20229;-91
2022/09/14 05:57:10;;;;;;;13.17;7.43;;;19.90;90.80;;;;;;5057378;28;20218;-94
2022/09/14 05:59:37;;;;;;;11.50;6.07;;;19.80;91.00;;;;;;5054013;28;20263;-93
2022/09/14 06:02:09;;;;;;;11.27;5.27;;;19.80;90.90;;;;;;5050918;28;20198;-96
2022/09/14 06:04:36;;;;;;;9.70;5.17;;;19.90;91.20;;;;;;5043979;28;20199;-96
2022/09/14 06:07:05;;;;;;;10.10;4.67;;;19.80;90.80;;;;;;5068990;28;20283;-96
2022/09/14 06:09:36;;;;;;;8.67;4.30;;;19.80;90.80;;;;;;5060381;28;20199;-96
2022/09/14 06:12:04;;;;;;;6.50;3.60;;;19.80;90.90;;;;;;5047418;28;20244;-93
2022/09/14 06:14:35;;;;;;;5.37;3.37;;;19.80;90.80;;;;;;5059443;28;20200;-94
2022/09/14 06:17:06;;;;;;;7.37;3.20;;;19.80;91.10;;;;;;5059835;28;20207;-96
2022/09/14 06:19:35;;;;;;;7.77;3.77;;;19.80;91.10;;;;;;5056970;28;20215;-96
2022/09/14 06:22:05;;;;;;;5.87;2.80;;;19.70;90.90;;;;;;5058780;28;20212;-96
2022/09/14 06:24:37;;;;;;;8.13;2.93;;;19.70;91.00;;;;;;5059039;28;20201;-96
2022/09/14 06:27:08;;;;;;;6.73;3.30;;;19.70;91.20;;;;;;5057423;28;20249;-96
2022/09/14 06:30:07;;;;;;;8.97;3.33;;;19.70;91.10;;;;;;5042590;28;20591;-96
2022/09/14 06:32:36;;;;;;;9.10;3.17;;;19.70;91.30;;;;;;5020505;28;20234;-96
2022/09/14 06:35:14;;;;;;;8.27;3.43;;;19.70;91.20;;;;;;5036780;28;20207;-96
2022/09/14 06:37:42;;;;;;;6.17;2.60;;;19.60;91.20;;;;;;5037783;28;20208;-96
2022/09/14 06:40:10;;;;;;;9.33;3.47;;;19.60;91.10;;;;;;5042878;28;20315;-95
2022/09/14 06:42:37;;;;;;;8.63;3.00;;;19.60;91.20;;;;;;5063650;28;20201;-96
2022/09/14 06:45:08;;;;;;;8.77;3.13;;;19.60;91.20;;;;;;5049666;28;20216;-96
2022/09/14 06:47:38;;;;;;;11.60;4.13;;;19.70;91.40;;;;;;5042085;28;20230;-96
2022/09/14 06:50:14;;;;;;;3.33;1.83;;;19.70;91.40;;;;;;5040604;28;20227;-96
2022/09/14 06:52:47;;;;;;;7.83;3.13;;;19.60;91.40;;;;;;5032283;28;20220;-96
2022/09/14 06:55:22;;;;;;;10.17;3.57;;;19.60;91.60;;;;;;5035021;28;20222;-95
2022/09/14 06:57:57;;;;;;;6.53;2.93;;;19.70;91.40;;;;;;5040628;28;20214;-96
2022/09/14 07:00:45;;;;;;;5.77;2.90;;;19.70;91.80;;;;;;5044934;28;20228;-96
2022/09/14 07:03:15;;;;;;;7.87;2.90;;;19.70;91.90;;;;;;5006004;28;20225;-95
2022/09/14 07:08:27;;;;;;;7.13;3.13;;;19.70;91.30;;;;;;5044809;28;20562;-96
2022/09/14 07:11:13;;;;;;;4.20;2.20;;;19.70;91.40;;;;;;5041720;28;20208;-96
2022/09/14 07:13:42;;;;;;;4.07;2.30;;;19.70;91.80;;;;;;5042818;28;20204;-95
2022/09/14 07:16:14;;;;;;;6.60;2.83;;;19.70;91.40;;;;;;5032859;28;20558;-95
2022/09/14 07:18:43;;;;;;;4.47;2.30;;;19.70;91.60;;;;;;5038659;28;20204;-96
2022/09/14 07:21:13;;;;;;;7.70;3.73;;;19.70;91.50;;;;;;5044290;28;20249;-96
2022/09/14 07:23:45;;;;;;;8.67;3.13;;;19.70;91.40;;;;;;5044324;28;20256;-96
2022/09/14 07:26:15;;;;;;;7.57;3.17;;;19.70;91.50;;;;;;5036214;28;20219;-95
2022/09/14 07:28:46;;;;;;;6.03;3.23;;;19.80;91.60;;;;;;5038725;28;20665;-96
2022/09/14 07:31:27;;;;;;;7.93;3.47;;;19.80;91.70;;;;;;5037546;28;20965;-96
2022/09/14 07:34:05;;;;;;;8.70;3.60;;;19.80;92.00;;;;;;5038110;28;20235;-96
2022/09/14 07:36:35;;;;;;;5.60;3.20;;;19.80;92.00;;;;;;5037772;28;20200;-96
2022/09/14 07:39:07;;;;;;;6.93;3.63;;;19.80;91.90;;;;;;5038086;28;20208;-96
2022/09/14 07:41:35;;;;;;;6.70;3.87;;;19.80;92.00;;;;;;5037128;28;20228;-96
2022/09/14 07:44:08;;;;;;;7.73;3.97;;;19.80;92.00;;;;;;5042539;28;20262;-96
2022/09/14 07:46:42;;;;;;;8.10;3.90;;;19.80;92.10;;;;;;5021087;28;20211;-96
2022/09/14 07:49:13;;;;;;;8.73;3.80;;;19.80;92.10;;;;;;5035051;28;20213;-96
2022/09/14 07:51:40;;;;;;;8.70;4.00;;;19.80;92.00;;;;;;5047640;28;20219;-93
2022/09/14 07:54:10;;;;;;;9.43;3.80;;;19.80;91.80;;;;;;5044196;28;20296;-95
2022/09/14 07:56:44;;;;;;;7.40;2.97;;;19.80;91.80;;;;;;5035869;28;20213;-96
2022/09/14 07:59:12;;;;;;;6.33;2.80;;;19.80;91.80;;;;;;5024512;28;20208;-96
2022/09/14 08:01:45;;;;;;;8.93;3.20;;;19.80;91.60;;;;;;5032516;28;20251;-96
2022/09/14 08:04:27;;;;;;;7.20;2.90;;;19.80;91.50;;;;;;5036269;28;20207;-96
2022/09/14 08:06:58;;;;;;;6.87;2.73;;;19.80;91.80;;;;;;5022354;28;20619;-95
2022/09/14 08:09:25;;;;;;;11.93;4.20;;;19.80;91.70;;;;;;5019805;28;20200;-95
2022/09/14 08:11:53;;;;;;;11.57;3.83;;;19.80;91.50;;;;;;5017817;28;20243;-95
2022/09/14 08:14:26;;;;;;;10.60;3.60;;;19.70;91.40;;;;;;5035731;28;20215;-96
2022/09/14 08:16:54;;;;;;;4.40;1.80;;;19.80;91.50;;;;;;5035833;28;20236;-96
2022/09/14 08:19:30;;;;;;;10.27;3.83;;;19.70;91.20;;;;;;5043928;28;20212;-96
2022/09/14 08:21:58;;;;;;;6.07;2.60;;;19.70;91.30;;;;;;5050776;28;20309;-96
2022/09/14 08:24:28;;;;;;;6.83;2.57;;;19.70;91.30;;;;;;5036278;28;20211;-95
2022/09/14 08:26:58;;;;;;;8.23;2.37;;;19.70;91.30;;;;;;5040817;28;20203;-96
2022/09/14 08:29:28;;;;;;;6.27;2.67;;;19.60;91.20;;;;;;5038945;28;20254;-96
2022/09/14 08:31:55;;;;;;;7.83;2.20;;;19.60;91.20;;;;;;5058483;28;20647;-96
2022/09/14 08:34:23;;;;;;;5.97;2.40;;;19.60;91.10;;;;;;5055019;28;20259;-96
2022/09/14 08:37:10;;;;;;;6.33;2.40;;;19.60;91.10;;;;;;5047150;28;20206;-96
2022/09/14 08:39:37;;;;;;;12.77;4.43;;;19.60;91.20;;;;;;5033790;28;20295;-96
2022/09/14 08:42:06;;;;;;;10.10;3.70;;;19.50;91.10;;;;;;5051581;28;20220;-95
2022/09/14 08:44:46;;;;;;;4.37;2.00;;;19.50;91.20;;;;;;5036232;28;20208;-96
2022/09/14 08:47:18;;;;;;;5.07;2.27;;;19.50;91.30;;;;;;5053452;28;20664;-94
2022/09/14 08:49:50;;;;;;;6.83;2.67;;;19.40;91.30;;;;;;5029729;28;20214;-96
2022/09/14 08:52:28;;;;;;;4.93;2.30;;;19.50;91.40;;;;;;5037613;28;20224;-96
2022/09/14 08:55:02;;;;;;;3.80;1.60;;;19.40;91.40;;;;;;5022529;28;20649;-96
2022/09/14 08:57:43;;;;;;;4.53;1.87;;;19.40;91.40;;;;;;5042583;28;20202;-96
2022/09/14 09:00:19;;;;;;;8.40;3.17;;;19.40;91.50;;;;;;5040224;28;20290;-96
2022/09/14 09:03:11;;;;;;;6.40;1.97;;;19.30;91.50;;;;;;5018117;28;20235;-96
2022/09/14 09:05:52;;;;;;;4.97;1.87;;;19.30;91.60;;;;;;5022660;28;20291;-94
2022/09/14 09:08:40;;;;;;;9.03;3.13;;;19.30;91.60;;;;;;5034858;28;20232;-96
2022/09/14 09:11:16;;;;;;;5.60;2.20;;;19.30;91.90;;;;;;5047406;28;20528;-96
2022/09/14 09:13:46;;;;;;;6.13;2.33;;;19.20;91.80;;;;;;5042004;28;20208;-96
2022/09/14 09:16:19;;;;;;;8.03;2.53;;;19.30;91.70;;;;;;5035445;28;20200;-96
2022/09/14 09:19:04;;;;;;;5.07;2.10;;;19.20;92.00;;;;;;5043679;28;20222;-96
2022/09/14 09:21:36;;;;;;;9.37;3.07;;;19.20;92.00;;;;;;5038001;28;20599;-96
2022/09/14 09:24:22;;;;;;;9.67;3.30;;;19.30;91.90;;;;;;5034846;28;20233;-95
2022/09/14 09:26:49;;;;;;;9.53;3.60;;;19.20;92.10;;;;;;5035904;28;20566;-94
2022/09/14 09:29:17;;;;;;;8.97;3.20;;;19.20;91.80;;;;;;5033610;28;20218;-96
2022/09/14 09:31:46;;;;;;;9.13;2.63;;;19.20;91.80;;;;;;5040192;28;20665;-92
2022/09/14 09:34:15;;;;;;;9.53;3.47;;;19.20;92.00;;;;;;5026874;28;20242;-93
2022/09/14 09:36:46;;;;;;;8.77;2.97;;;19.20;92.10;;;;;;5037013;28;20197;-92
2022/09/14 09:39:15;;;;;;;14.87;5.17;;;19.20;92.20;;;;;;5032362;28;20679;-92
2022/09/14 09:41:46;;;;;;;7.80;2.83;;;19.30;92.70;;;;;;5031807;28;20240;-91
2022/09/14 09:44:13;;;;;;;8.80;3.10;;;19.20;92.30;;;;;;5047623;28;20203;-91
2022/09/14 09:46:46;;;;;;;11.47;3.47;;;19.20;92.10;;;;;;5049655;28;20203;-92
2022/09/14 09:49:20;;;;;;;9.40;3.57;;;19.20;92.30;;;;;;5039660;28;20212;-91
2022/09/14 09:51:49;;;;;;;6.60;2.67;;;19.20;92.40;;;;;;5035585;28;20216;-92
2022/09/14 09:54:25;;;;;;;6.57;2.50;;;19.20;92.20;;;;;;5033394;28;20259;-90
2022/09/14 09:56:56;;;;;;;6.33;2.40;;;19.20;92.40;;;;;;5031475;28;20211;-90
2022/09/14 09:59:34;;;;;;;9.30;3.37;;;19.30;92.50;;;;;;5027275;28;20239;-90
2022/09/14 10:02:29;;;;;;;8.17;2.57;;;19.30;92.40;;;;;;5024733;28;20230;-90
2022/09/14 10:04:59;;;;;;;6.23;2.43;;;19.30;92.50;;;;;;5030426;28;20209;-91
2022/09/14 10:07:29;;;;;;;6.50;1.97;;;19.20;92.10;;;;;;5031599;28;21014;-91
2022/09/14 10:10:07;;;;;;;6.90;2.43;;;19.20;92.10;;;;;;5031175;28;20239;-92
2022/09/14 10:12:38;;;;;;;7.23;2.70;;;19.20;92.20;;;;;;5044929;28;20235;-90
2022/09/14 10:15:16;;;;;;;7.00;2.57;;;19.20;92.00;;;;;;5048835;28;20221;-92
2022/09/14 10:18:08;;;;;;;9.43;2.33;;;19.20;92.10;;;;;;5047535;28;20935;-94
2022/09/14 10:20:40;;;;;;;5.23;2.00;;;19.20;92.10;;;;;;5030843;28;20259;-95
2022/09/14 10:23:27;;;;;;;7.77;2.83;;;19.20;91.90;;;;;;5015178;28;20303;-92
2022/09/14 10:26:27;;;;;;;3.90;1.83;;;19.20;91.80;;;;;;5021715;28;20648;-93
2022/09/14 10:28:57;;;;;;;8.93;2.00;;;19.20;91.80;;;;;;5034131;28;20225;-95
2022/09/14 10:31:32;;;;;;;4.57;1.80;;;19.20;91.60;;;;;;5032531;28;20274;-90
2022/09/14 10:34:18;;;;;;;4.77;1.67;;;19.20;91.80;;;;;;5023193;28;20220;-90
2022/09/14 10:36:53;;;;;;;5.87;2.07;;;19.20;91.80;;;;;;5039743;28;20215;-92
2022/09/14 10:39:25;;;;;;;9.50;3.47;;;19.20;91.80;;;;;;5043095;28;20197;-94
2022/09/14 10:42:00;;;;;;;5.17;1.87;;;19.20;91.90;;;;;;5034804;28;20228;-93
2022/09/14 10:44:58;;;;;;;5.57;2.07;;;19.10;91.90;;;;;;5017834;28;20653;-96
2022/09/14 10:47:55;;;;;;;9.53;3.33;;;19.20;91.90;;;;;;5011098;28;20676;-95
2022/09/14 10:50:28;;;;;;;3.87;1.83;;;19.20;92.10;;;;;;5018269;28;20268;-94
2022/09/14 10:53:04;;;;;;;3.47;1.60;;;19.20;91.90;;;;;;5033512;28;20265;-92
2022/09/14 10:55:42;;;;;;;8.40;2.77;;;19.10;92.00;;;;;;5026394;28;21644;-92
2022/09/14 10:58:26;;;;;;;6.57;2.20;;;19.10;91.90;;;;;;5028083;28;20294;-91
2022/09/14 11:01:03;;;;;;;15.27;4.27;;;19.10;92.00;;;;;;5029307;28;20222;-95
2022/09/14 11:03:45;;;;;;;7.83;2.63;;;19.20;92.20;;;;;;5026439;28;20208;-90
2022/09/14 11:06:31;;;;;;;11.73;3.93;;;19.10;92.20;;;;;;5027805;28;20206;-93
2022/09/14 11:09:17;;;;;;;4.93;2.10;;;19.20;92.20;;;;;;5036070;28;20208;-96
2022/09/14 11:15:03;;;;;;;8.40;3.17;;;19.20;92.20;;;;;;5029221;28;20753;-92
2022/09/14 11:18:08;;;;;;;6.40;2.63;;;19.20;92.10;;;;;;5021298;28;20205;-94
2022/09/14 11:23:55;;;;;;;6.27;2.77;;;19.10;91.90;;;;;;5051984;28;20207;-94
2022/09/14 11:26:34;;;;;;;4.83;2.10;;;19.10;91.80;;;;;;5021755;28;20219;-96
2022/09/14 11:29:19;;;;;;;11.80;3.97;;;19.10;91.90;;;;;;5049491;28;20198;-96
2022/09/14 11:32:03;;;;;;;3.77;1.90;;;19.10;92.20;;;;;;5034031;28;20203;-95
2022/09/14 11:34:57;;;;;;;;;;;;;;;;;;;;;
2022/09/14 11:43:14;;;;;;;10.03;3.57;;;19.10;92.20;;;;;;5030811;28;20660;-93
2022/09/14 11:45:53;;;;;;;7.83;3.10;;;19.10;92.20;;;;;;5051783;28;20208;-93
2022/09/14 11:48:31;;;;;;;15.17;5.27;;;19.10;92.40;;;;;;5048979;28;20201;-94
2022/09/14 11:51:06;;;;;;;13.13;4.40;;;19.10;92.30;;;;;;5037542;28;20218;-95
2022/09/14 11:53:40;;;;;;;5.23;2.50;;;19.10;92.40;;;;;;5053079;28;20210;-96
2022/09/14 11:56:25;;;;;;;10.00;3.40;;;19.10;92.40;;;;;;5048276;28;20214;-94
2022/09/14 11:58:54;;;;;;;8.40;2.97;;;19.10;92.70;;;;;;5023922;28;20250;-94
2022/09/14 12:01:34;;;;;;;7.27;3.07;;;19.10;92.30;;;;;;5042737;28;20240;-95
2022/09/14 12:04:12;;;;;;;7.73;2.90;;;19.10;92.50;;;;;;5039144;28;20206;-95
2022/09/14 12:07:08;;;;;;;8.53;3.20;;;19.10;92.70;;;;;;5054067;28;20203;-96
2022/09/14 12:09:45;;;;;;;8.90;3.57;;;19.10;92.50;;;;;;5041359;28;20732;-95
2022/09/14 12:12:36;;;;;;;6.93;2.93;;;19.10;92.40;;;;;;5034284;28;20206;-95
2022/09/14 12:15:17;;;;;;;9.10;3.60;;;19.10;92.50;;;;;;5035880;28;20262;-95
2022/09/14 12:17:45;;;;;;;5.77;2.53;;;19.20;92.70;;;;;;5037456;28;20216;-95
2022/09/14 12:20:49;;;;;;;7.70;3.00;;;19.10;92.60;;;;;;5050986;28;20228;-94
2022/09/14 12:23:30;;;;;;;10.27;3.37;;;19.20;92.80;;;;;;5018102;28;20215;-95
2022/09/14 12:26:27;;;;;;;3.77;1.70;;;19.20;92.80;;;;;;5056413;28;20200;-94
2022/09/14 12:29:20;;;;;;;8.40;2.90;;;19.20;93.00;;;;;;5021000;28;20274;-94
2022/09/14 12:32:25;;;;;;;6.03;2.67;;;19.20;93.00;;;;;;5032212;28;20223;-94
2022/09/14 12:35:26;;;;;;;8.97;2.80;;;19.20;92.80;;;;;;5013812;28;20566;-96
2022/09/14 12:37:58;;;;;;;8.80;2.67;;;19.30;92.80;;;;;;5049433;28;20214;-96
2022/09/14 12:40:38;;;;;;;4.07;2.10;;;19.30;92.70;;;;;;5035444;28;20973;-95
2022/09/14 12:43:47;;;;;;;8.30;3.37;;;19.30;92.90;;;;;;5033151;28;20235;-95
2022/09/14 12:46:42;;;;;;;7.13;2.47;;;19.30;92.90;;;;;;5019882;28;20231;-94
2022/09/14 12:49:37;;;;;;;5.93;2.60;;;19.30;92.60;;;;;;5041358;28;20209;-95
2022/09/14 12:52:25;;;;;;;6.30;2.37;;;19.30;92.70;;;;;;4974184;28;20210;-96
2022/09/14 12:55:15;;;;;;;5.47;2.60;;;19.30;92.70;;;;;;5048172;28;20205;-93
2022/09/14 12:57:53;;;;;;;8.87;3.67;;;19.30;92.90;;;;;;5036635;28;20245;-94
2022/09/14 13:00:23;;;;;;;6.40;2.83;;;19.30;92.90;;;;;;5022935;28;20207;-93
2022/09/14 13:03:17;;;;;;;2.43;1.57;;;19.40;92.90;;;;;;5036199;28;20231;-95
2022/09/14 13:05:45;;;;;;;5.53;2.73;;;19.40;93.10;;;;;;5044734;28;20621;-94
2022/09/14 13:08:21;;;;;;;6.77;2.80;;;19.40;92.90;;;;;;5046259;28;20303;-94
2022/09/14 13:10:54;;;;;;;6.50;2.60;;;19.40;93.20;;;;;;5037308;28;20192;-95
2022/09/14 13:13:30;;;;;;;6.20;2.37;;;19.50;93.40;;;;;;5049939;28;20218;-93
2022/09/14 13:16:01;;;;;;;3.37;1.87;;;19.50;92.90;;;;;;5038727;28;20248;-95
2022/09/14 13:18:33;;;;;;;6.13;2.33;;;19.50;93.00;;;;;;5038486;28;20561;-95
2022/09/14 13:21:02;;;;;;;7.63;2.87;;;19.50;93.00;;;;;;5035531;28;20201;-91
2022/09/14 13:23:37;;;;;;;6.40;2.40;;;19.50;92.80;;;;;;5039206;28;20278;-93
2022/09/14 13:26:12;;;;;;;4.77;2.07;;;19.50;92.90;;;;;;5056206;28;20223;-94
2022/09/14 13:28:45;;;;;;;6.40;2.57;;;19.50;92.90;;;;;;5052916;28;20210;-94
2022/09/14 13:31:14;;;;;;;6.40;2.70;;;19.60;92.90;;;;;;5045810;28;20812;-93
2022/09/14 13:33:48;;;;;;;4.47;2.00;;;19.60;92.60;;;;;;5036069;28;20291;-94
2022/09/14 13:36:20;;;;;;;3.80;2.10;;;19.60;92.90;;;;;;5031498;28;20219;-94
2022/09/14 13:38:49;;;;;;;5.53;2.20;;;19.60;92.80;;;;;;5031302;28;20204;-95
2022/09/14 13:41:21;;;;;;;7.53;2.90;;;19.60;92.80;;;;;;5056304;28;20273;-93
2022/09/14 13:44:00;;;;;;;4.97;2.07;;;19.70;92.80;;;;;;5053837;28;20332;-93
2022/09/14 13:46:28;;;;;;;6.97;2.83;;;19.70;92.90;;;;;;5057319;28;20570;-94